TAF and METAR

METAR for Zabol Airport

OIZB 161200Z 34019KT CAVOK 44/03 Q0997
Report created 16. aug 14:00
wind 19 knots from NNW (340°) Clear sky Temperature 44° with dewpoint at 3° (Humidity 8.36%) Pressure 997 hPa
No TAF available for Zabol Airport